CheckWX is a tool to help pilots better visualize weather data.  It is not intended as a substitute for an official pre-flight weather briefing.

20:59:33 UTC

ESCM METAR
Uppsala Airport
Sweden
Current

40 mins ago

ESCM 232020Z AUTO 15003KT 9999 NCD 07/M02 Q1025
Observed
Apr-23 @ 20:20 UTC
Wind
  • 150° at 3 KTS
Visibility
10,000+ meters
Flight Rules
VFR
Cloud Levels
  • Clear skies
Temperature
C / 45°F
Dewpoint
-2°C / 28°F
Humidity
53%
Altimeter
30.27" Hg
Pressure
1024.92 hPa
Previous

1 hour ago

ESCM 231950Z AUTO 15003KT 9999 NCD 09/M01 Q1025
Observed
Apr-23 @ 19:50 UTC
Wind
  • 150° at 3 KTS
Visibility
10,000+ meters
Flight Rules
VFR
Cloud Levels
  • Clear skies
Temperature
C / 48°F
Dewpoint
-1°C / 30°F
Humidity
50%
Altimeter
30.27" Hg
Pressure
1024.92 hPa
Previous

2 hours ago

ESCM 231920Z AUTO 17004KT 9999 NCD 10/M02 Q1025
Observed
Apr-23 @ 19:20 UTC
Wind
  • 170° at 4 KTS
Visibility
10,000+ meters
Flight Rules
VFR
Cloud Levels
  • Clear skies
Temperature
10°C / 50°F
Dewpoint
-2°C / 28°F
Humidity
43%
Altimeter
30.27" Hg
Pressure
1024.92 hPa